Observations for BOURNEMOUTH AIRPORT, United Kingdom (EGHH)

EGHH 201920Z 21010KT 9999 SCT036 09/08 Q1022
EGHH 201850Z 20008KT 9999 FEW007 09/08 Q1021
EGHH 201820Z 19006KT 9999 FEW007 09/07 Q1021
EGHH 201750Z 19008KT 9999 FEW009 09/07 Q1021
EGHH 201720Z 19006KT 9999 FEW010 09/07 Q1020
EGHH 201650Z 20008KT 9999 FEW010 SCT015 09/07 Q1020 
EGHH 201620Z 20011KT 9999 SCT015 10/07 Q1020
EGHH 201550Z 20009KT 9999 BKN017 10/07 Q1020
EGHH 201520Z 20010KT 9999 FEW013 SCT017 11/08 Q1020 
EGHH 201450Z 20012KT 9999 FEW013 BKN016 10/07 Q1020 
EGHH 201420Z 20011KT 9999 FEW013 BKN017 11/08 Q1020 
EGHH 201350Z 20012KT 9999 SCT011 BKN016 11/08 Q1020 
EGHH 201320Z 19012KT 9999 SCT010 BKN017 10/08 Q1020 
EGHH 201250Z 20012KT 9999 SCT013 BKN017 11/07 Q1020 
EGHH 201220Z 21012KT 9999 BKN018 11/08 Q1020
EGHH 201150Z 20012KT 9999 SCT013 SCT020 11/08 Q1020 
EGHH 201120Z 20013KT 9999 BKN013 11/08 Q1020
EGHH 201050Z 20012KT 9999 BKN013 11/08 Q1020
EGHH 201020Z 20010KT 9999 BKN013 10/08 Q1020
EGHH 200950Z 21010KT 9999 BKN012 10/08 Q1020
EGHH 200920Z 21009KT 9999 FEW010 BKN012 09/07 Q1019 
EGHH 200850Z 21009KT 9999 FEW010 BKN013 09/07 Q1019 
EGHH 200820Z 20007KT 9999 SCT014 BKN016 09/07 Q1019 
EGHH 200750Z 20007KT 9999 FEW010 SCT017 09/07 Q1019 
EGHH 200720Z 20007KT 9999 FEW010 SCT045 08/06 Q1018 
EGHH 200650Z 21008KT 9999 FEW045 08/06 Q1018
EGHH 200620Z 21008KT 9999 BKN044 09/06 Q1018
EGHH 200550Z 21008KT 9999 BKN043 08/06 Q1018
EGHH 191950Z 21007KT 9999 FEW045 08/06 Q1019
EGHH 191920Z 21007KT 9999 FEW045 08/06 Q1019